Time;durP1;ratioP1;P1;durP2;ratioP2;P2;SDS_P1;SDS_P2;PMS_P1;PMS_P2;Temp;Humidity;BMP_temperature;BMP_pressure;BME280_temperature;BME280_humidity;BME280_pressure;Samples;Min_cycle;Max_cycle;Signal;HPM_P1;HPM_P2
2022/08/22 00:01:04;;;;;;;6.53;2.00;;;14.40;96.10;;;;;;5013611;28;20500;-68
2022/08/22 00:03:48;;;;;;;6.70;2.70;;;14.40;96.20;;;;;;5013830;28;20907;-67
2022/08/22 00:06:28;;;;;;;4.33;1.73;;;14.40;96.20;;;;;;5014096;28;20405;-68
2022/08/22 00:09:32;;;;;;;4.97;1.80;;;14.40;95.90;;;;;;5013856;28;20985;-68
2022/08/22 00:12:03;;;;;;;6.33;2.17;;;14.40;96.00;;;;;;5012110;28;20469;-68
2022/08/22 00:14:42;;;;;;;3.17;1.90;;;14.30;96.50;;;;;;5013764;28;20414;-68
2022/08/22 00:17:35;;;;;;;4.80;2.00;;;14.30;96.40;;;;;;5013605;28;20417;-67
2022/08/22 00:20:13;;;;;;;5.93;2.10;;;14.30;96.50;;;;;;5013692;28;20417;-67
2022/08/22 00:23:02;;;;;;;5.70;2.40;;;14.10;96.80;;;;;;5013220;28;20450;-68
2022/08/22 00:25:33;;;;;;;7.83;2.13;;;14.10;97.00;;;;;;5013415;28;20456;-67
2022/08/22 00:28:02;;;;;;;7.07;2.90;;;14.10;97.20;;;;;;5013446;28;20468;-68
2022/08/22 00:30:33;;;;;;;3.40;1.73;;;14.20;97.30;;;;;;5013340;28;20442;-68
2022/08/22 00:33:13;;;;;;;4.83;2.40;;;14.20;97.20;;;;;;5011846;28;20422;-68
2022/08/22 00:35:48;;;;;;;4.43;1.50;;;14.20;97.30;;;;;;5013300;28;20489;-68
2022/08/22 00:38:26;;;;;;;5.10;2.23;;;14.20;97.40;;;;;;5013093;28;20401;-68
2022/08/22 00:41:21;;;;;;;7.00;2.07;;;14.20;97.50;;;;;;5012974;28;20797;-68
2022/08/22 00:44:14;;;;;;;8.30;2.60;;;14.20;97.40;;;;;;5013104;28;20394;-67
2022/08/22 00:46:48;;;;;;;7.73;2.00;;;14.20;97.20;;;;;;5013142;28;20435;-68
2022/08/22 00:49:35;;;;;;;4.90;1.97;;;14.20;97.20;;;;;;5019927;28;20409;-68
2022/08/22 00:52:44;;;;;;;2.83;1.60;;;14.30;97.40;;;;;;5032216;28;20424;-68
2022/08/22 00:55:36;;;;;;;5.77;2.93;;;14.20;97.40;;;;;;5012833;28;20451;-68
2022/08/22 00:58:12;;;;;;;3.90;2.00;;;14.30;97.30;;;;;;4995269;28;20423;-67
2022/08/22 01:00:45;;;;;;;4.00;1.70;;;14.20;97.40;;;;;;4993112;28;20542;-68
2022/08/22 01:03:16;;;;;;;4.97;2.03;;;14.20;97.30;;;;;;4992898;28;20395;-68
2022/08/22 01:05:47;;;;;;;2.97;1.70;;;14.20;97.10;;;;;;4993200;28;20411;-68
2022/08/22 01:08:55;;;;;;;9.20;2.57;;;14.20;97.30;;;;;;4993152;28;20411;-68
2022/08/22 01:11:34;;;;;;;4.17;1.97;;;14.20;97.50;;;;;;4991404;28;20473;-67
2022/08/22 01:14:31;;;;;;;4.63;2.10;;;14.20;97.90;;;;;;4992960;28;20477;-67
2022/08/22 01:17:08;;;;;;;4.80;2.10;;;14.20;97.90;;;;;;4993125;28;20774;-68
2022/08/22 01:20:11;;;;;;;2.83;1.60;;;14.20;97.90;;;;;;4992953;28;20421;-67
2022/08/22 01:22:39;;;;;;;3.53;1.80;;;14.20;97.50;;;;;;4991569;28;20464;-67
2022/08/22 01:25:24;;;;;;;5.60;2.37;;;14.20;97.80;;;;;;4993085;28;20465;-68
2022/08/22 01:28:15;;;;;;;3.80;1.93;;;14.30;97.70;;;;;;4993012;28;20399;-67
2022/08/22 01:30:49;;;;;;;2.93;1.93;;;14.30;97.80;;;;;;4992916;28;20419;-68
2022/08/22 01:33:33;;;;;;;7.10;2.10;;;14.30;97.60;;;;;;4991667;28;20431;-67
2022/08/22 01:36:14;;;;;;;5.63;1.87;;;14.30;97.70;;;;;;4993156;28;20442;-68
2022/08/22 01:38:57;;;;;;;4.60;2.30;;;14.40;97.90;;;;;;4993297;28;20461;-67
2022/08/22 01:41:38;;;;;;;5.03;1.90;;;14.30;98.00;;;;;;4992578;28;20497;-68
2022/08/22 01:44:34;;;;;;;6.20;2.47;;;14.30;98.10;;;;;;4992705;28;20407;-67
2022/08/22 01:47:07;;;;;;;2.53;1.50;;;14.30;98.10;;;;;;4993059;28;20406;-68
2022/08/22 01:49:33;;;;;;;3.20;1.47;;;14.20;98.30;;;;;;5011829;28;20492;-67
2022/08/22 01:52:41;;;;;;;3.83;1.87;;;14.30;98.20;;;;;;5031726;28;20501;-67
2022/08/22 01:55:28;;;;;;;4.90;2.40;;;14.30;98.20;;;;;;5032068;28;20642;-67
2022/08/22 01:58:03;;;;;;;6.57;3.13;;;14.30;98.10;;;;;;4992840;28;20442;-68
2022/08/22 02:00:49;;;;;;;4.90;1.90;;;14.30;98.10;;;;;;4992319;28;20493;-68
2022/08/22 02:03:31;;;;;;;7.27;2.90;;;14.20;98.30;;;;;;4992333;28;20498;-68
2022/08/22 02:06:06;;;;;;;5.53;2.73;;;14.20;98.30;;;;;;4992518;28;20406;-68
2022/08/22 02:09:04;;;;;;;5.30;2.90;;;14.10;98.00;;;;;;4992680;28;20734;-67
2022/08/22 02:11:38;;;;;;;4.17;2.07;;;14.10;98.00;;;;;;4990786;28;20423;-67
2022/08/22 02:14:13;;;;;;;5.83;2.40;;;14.10;97.90;;;;;;4992445;28;20409;-68
2022/08/22 02:16:42;;;;;;;6.03;2.50;;;14.00;98.30;;;;;;4992422;28;20423;-68
2022/08/22 02:19:38;;;;;;;8.00;2.40;;;14.00;98.70;;;;;;4992319;28;20473;-68
2022/08/22 02:22:36;;;;;;;6.10;2.47;;;13.90;98.90;;;;;;4991627;28;20469;-68
2022/08/22 02:25:21;;;;;;;3.27;1.57;;;13.90;99.10;;;;;;4992314;28;20407;-68
2022/08/22 02:27:57;;;;;;;5.00;2.03;;;13.80;99.30;;;;;;4992199;28;20407;-68
2022/08/22 02:30:44;;;;;;;6.50;2.80;;;13.80;99.30;;;;;;4992204;28;20419;-68
2022/08/22 02:33:32;;;;;;;4.73;2.10;;;13.80;99.50;;;;;;4992191;28;20422;-68
2022/08/22 02:36:22;;;;;;;7.60;2.70;;;13.80;99.50;;;;;;4995752;28;20418;-68
2022/08/22 02:38:54;;;;;;;4.93;2.60;;;13.80;99.40;;;;;;4996035;28;20407;-68
2022/08/22 02:41:35;;;;;;;5.33;2.27;;;13.80;99.30;;;;;;4995155;28;20442;-68
2022/08/22 02:44:14;;;;;;;9.23;2.90;;;13.80;99.10;;;;;;4995638;28;20462;-68
2022/08/22 02:47:07;;;;;;;10.80;1.90;;;13.70;99.20;;;;;;4995618;28;20462;-67
2022/08/22 02:49:52;;;;;;;3.63;2.20;;;13.60;99.20;;;;;;5014750;28;20413;-68
2022/08/22 02:52:32;;;;;;;3.13;2.07;;;13.60;99.50;;;;;;5034669;28;20409;-68
2022/08/22 02:55:33;;;;;;;3.73;2.03;;;13.60;99.50;;;;;;5035002;28;20394;-67
2022/08/22 02:58:37;;;;;;;5.20;1.70;;;13.70;99.40;;;;;;4995480;28;20473;-68
2022/08/22 03:01:03;;;;;;;5.60;2.40;;;13.60;99.50;;;;;;4995012;28;20938;-68
2022/08/22 03:03:36;;;;;;;7.60;2.57;;;13.50;99.70;;;;;;4995727;28;20415;-68
2022/08/22 03:06:25;;;;;;;4.70;2.40;;;13.50;99.90;;;;;;4995741;28;20176;-68
2022/08/22 03:09:29;;;;;;;8.03;2.23;;;13.40;99.90;;;;;;4995281;28;20517;-67
2022/08/22 03:12:02;;;;;;;7.33;2.50;;;13.30;99.90;;;;;;4995006;28;20418;-68
2022/08/22 03:14:34;;;;;;;3.90;2.00;;;13.20;99.90;;;;;;4995310;28;20457;-68
2022/08/22 03:17:15;;;;;;;4.70;2.30;;;13.20;99.90;;;;;;4995171;28;20443;-68
2022/08/22 03:19:50;;;;;;;6.60;2.57;;;13.20;99.90;;;;;;4995262;28;20391;-68
2022/08/22 03:22:25;;;;;;;4.53;1.73;;;13.10;99.90;;;;;;4994558;28;20508;-68
2022/08/22 03:25:00;;;;;;;8.07;2.73;;;13.10;99.90;;;;;;4995105;28;20418;-68
2022/08/22 03:27:33;;;;;;;4.27;2.37;;;13.10;99.90;;;;;;4994966;28;20410;-68
2022/08/22 03:30:01;;;;;;;5.13;2.50;;;13.10;99.90;;;;;;4994931;28;20411;-68
2022/08/22 03:33:13;;;;;;;5.17;2.67;;;13.10;99.90;;;;;;4993344;28;20967;-68
2022/08/22 03:35:45;;;;;;;5.23;2.33;;;13.10;99.90;;;;;;4992221;28;20938;-68
2022/08/22 03:38:21;;;;;;;3.90;2.23;;;13.10;99.90;;;;;;4994703;28;20466;-68
2022/08/22 03:41:18;;;;;;;5.10;2.70;;;13.10;99.90;;;;;;4994599;28;20446;-68
2022/08/22 03:44:14;;;;;;;5.33;2.20;;;13.00;99.90;;;;;;4994647;28;20403;-67
2022/08/22 03:47:00;;;;;;;3.43;2.23;;;13.00;99.90;;;;;;4994319;28;20415;-68
2022/08/22 03:49:46;;;;;;;8.60;2.37;;;13.00;99.90;;;;;;4994626;28;20395;-68
2022/08/22 03:53:05;;;;;;;5.37;2.77;;;12.90;99.90;;;;;;4993909;28;20764;-68
2022/08/22 03:55:41;;;;;;;6.60;3.40;;;12.90;99.90;;;;;;4994315;28;20427;-68
2022/08/22 03:58:34;;;;;;;8.13;2.70;;;12.80;99.90;;;;;;4994466;28;20477;-67
2022/08/22 04:01:37;;;;;;;9.00;3.37;;;12.70;99.90;;;;;;4993808;28;20443;-68
2022/08/22 04:04:53;;;;;;;7.93;2.83;;;12.70;99.90;;;;;;4993918;28;20419;-68
2022/08/22 04:07:38;;;;;;;8.73;3.30;;;12.70;99.90;;;;;;4992879;28;20770;-68
2022/08/22 04:10:21;;;;;;;14.23;3.90;;;12.70;99.90;;;;;;4994161;28;20403;-68
2022/08/22 04:13:24;;;;;;;6.10;2.80;;;12.70;99.90;;;;;;4993695;28;20395;-68
2022/08/22 04:16:47;;;;;;;6.50;2.90;;;12.60;99.90;;;;;;4993944;28;20489;-68
2022/08/22 04:19:30;;;;;;;5.80;3.00;;;12.50;99.90;;;;;;4964105;28;20425;-68
2022/08/22 04:22:06;;;;;;;5.07;2.63;;;12.50;99.90;;;;;;4993446;28;20488;-68
2022/08/22 04:24:37;;;;;;;9.10;3.00;;;12.50;99.90;;;;;;4994032;28;20809;-68
2022/08/22 04:27:24;;;;;;;9.03;2.20;;;12.40;99.90;;;;;;4993859;28;20446;-68
2022/08/22 04:30:00;;;;;;;4.67;2.30;;;12.40;99.90;;;;;;4993840;28;20407;-68
2022/08/22 04:32:26;;;;;;;7.07;3.50;;;12.30;99.90;;;;;;4992290;28;20941;-68
2022/08/22 04:35:09;;;;;;;4.73;2.47;;;12.30;99.90;;;;;;4993929;28;20415;-67
2022/08/22 04:37:52;;;;;;;6.07;2.40;;;12.30;99.90;;;;;;4993929;28;20176;-68
2022/08/22 04:40:48;;;;;;;5.13;2.40;;;12.20;99.90;;;;;;4993778;28;20792;-69
2022/08/22 04:43:24;;;;;;;24.23;2.60;;;12.20;99.90;;;;;;4992348;28;20426;-68
2022/08/22 04:45:52;;;;;;;5.73;3.00;;;12.20;99.90;;;;;;4993499;28;20411;-68
2022/08/22 04:48:27;;;;;;;5.37;2.67;;;12.30;99.90;;;;;;4993258;28;20419;-68
2022/08/22 04:51:02;;;;;;;5.53;2.97;;;12.30;99.90;;;;;;4993324;28;20465;-67
2022/08/22 04:54:01;;;;;;;5.60;2.63;;;12.30;99.90;;;;;;4993356;28;20588;-68
2022/08/22 04:56:55;;;;;;;8.80;3.07;;;12.30;99.90;;;;;;5010480;28;21043;-68
2022/08/22 04:59:23;;;;;;;5.90;2.60;;;12.40;99.90;;;;;;5032730;28;20490;-68
2022/08/22 05:01:59;;;;;;;5.77;2.80;;;12.40;99.90;;;;;;5031873;28;20540;-68
2022/08/22 05:04:34;;;;;;;5.73;2.33;;;12.40;99.90;;;;;;5032416;28;20780;-68
2022/08/22 05:07:09;;;;;;;6.90;3.00;;;12.40;99.90;;;;;;5032342;28;20404;-68
2022/08/22 05:09:41;;;;;;;5.20;2.30;;;12.50;99.90;;;;;;5032652;28;20888;-68
2022/08/22 05:12:13;;;;;;;6.30;2.97;;;12.50;99.90;;;;;;5031827;28;20432;-68
2022/08/22 05:14:42;;;;;;;7.27;3.10;;;12.60;99.90;;;;;;5032393;28;20457;-68
2022/08/22 05:17:12;;;;;;;7.07;2.70;;;12.60;99.90;;;;;;5032273;28;20409;-68
2022/08/22 05:19:41;;;;;;;7.40;2.27;;;12.70;99.90;;;;;;5032186;28;20416;-67
2022/08/22 05:22:18;;;;;;;4.53;2.67;;;12.70;99.90;;;;;;5031761;28;20967;-68
2022/08/22 05:24:52;;;;;;;8.30;3.43;;;12.70;99.90;;;;;;5032398;28;20413;-67
2022/08/22 05:27:29;;;;;;;6.43;2.97;;;12.80;99.90;;;;;;5032162;28;20400;-68
2022/08/22 05:30:11;;;;;;;5.07;2.63;;;12.80;99.90;;;;;;5032042;28;20471;-68
2022/08/22 05:33:02;;;;;;;8.40;2.63;;;12.90;99.90;;;;;;5030772;28;20894;-68
2022/08/22 05:35:36;;;;;;;3.83;2.30;;;12.90;99.90;;;;;;5032001;28;20496;-68
2022/08/22 05:38:05;;;;;;;4.53;2.27;;;13.00;99.90;;;;;;5031997;28;20419;-68
2022/08/22 05:40:33;;;;;;;3.90;2.20;;;13.00;99.90;;;;;;5031422;28;20409;-68
2022/08/22 05:42:59;;;;;;;3.80;2.30;;;13.10;99.90;;;;;;5031043;28;20424;-68
2022/08/22 05:45:27;;;;;;;6.80;2.73;;;13.20;99.90;;;;;;5031440;28;20405;-68
2022/08/22 05:48:21;;;;;;;6.97;3.20;;;13.30;99.90;;;;;;5031530;28;20631;-67
2022/08/22 05:50:54;;;;;;;6.77;2.77;;;13.30;99.90;;;;;;5031295;28;20733;-67
2022/08/22 05:53:34;;;;;;;8.50;3.07;;;13.40;99.90;;;;;;5031181;28;20492;-67
2022/08/22 05:56:25;;;;;;;6.70;2.70;;;13.50;99.90;;;;;;5031681;28;20405;-68
2022/08/22 05:59:01;;;;;;;6.10;2.50;;;13.50;99.90;;;;;;5031525;28;20416;-67
2022/08/22 06:01:33;;;;;;;10.03;3.30;;;13.60;99.90;;;;;;5031015;28;20444;-67
2022/08/22 06:03:59;;;;;;;6.07;3.10;;;13.70;99.90;;;;;;5032182;28;20412;-68
2022/08/22 06:06:27;;;;;;;5.77;2.70;;;13.80;99.90;;;;;;5032008;28;20413;-67
2022/08/22 06:09:09;;;;;;;5.73;2.70;;;13.90;99.90;;;;;;5034382;28;20178;-67
2022/08/22 06:11:41;;;;;;;4.30;2.23;;;14.10;99.90;;;;;;5035531;28;20416;-67
2022/08/22 06:14:24;;;;;;;4.60;2.20;;;14.20;99.90;;;;;;5035713;28;20401;-67
2022/08/22 06:16:58;;;;;;;5.50;1.90;;;14.30;99.90;;;;;;5035658;28;20428;-67
2022/08/22 06:19:24;;;;;;;5.70;2.60;;;14.40;99.90;;;;;;5035656;28;20492;-68
2022/08/22 06:21:51;;;;;;;5.53;2.27;;;14.50;99.90;;;;;;5033977;28;20873;-68
2022/08/22 06:24:26;;;;;;;11.97;2.80;;;14.60;99.90;;;;;;5035409;28;20458;-67
2022/08/22 06:27:00;;;;;;;3.77;2.00;;;14.70;99.90;;;;;;5035388;28;20400;-68
2022/08/22 06:29:49;;;;;;;6.63;2.27;;;14.80;99.90;;;;;;5035403;28;20889;-67
2022/08/22 06:32:21;;;;;;;5.30;2.33;;;14.90;99.90;;;;;;5033660;28;20433;-67
2022/08/22 06:34:49;;;;;;;4.43;2.17;;;15.10;99.90;;;;;;5035303;28;20443;-67
2022/08/22 06:37:22;;;;;;;4.23;2.13;;;15.20;99.90;;;;;;5034882;28;20428;-68
2022/08/22 06:39:52;;;;;;;6.57;2.13;;;15.40;99.90;;;;;;5035044;28;20393;-67
2022/08/22 06:42:24;;;;;;;6.97;2.23;;;15.70;99.80;;;;;;5034450;28;20484;-67
2022/08/22 06:45:01;;;;;;;9.00;2.83;;;15.90;99.10;;;;;;5034843;28;20511;-67
2022/08/22 06:47:41;;;;;;;4.63;2.00;;;16.20;98.00;;;;;;5034760;28;20893;-67
2022/08/22 06:50:12;;;;;;;9.23;2.00;;;16.50;97.60;;;;;;5034855;28;20402;-68
2022/08/22 06:52:53;;;;;;;9.57;2.13;;;16.90;96.30;;;;;;5034233;28;20429;-68
2022/08/22 06:55:21;;;;;;;4.10;1.97;;;17.10;95.30;;;;;;5034999;28;20493;-68
2022/08/22 06:57:56;;;;;;;4.00;2.00;;;17.30;95.00;;;;;;5034687;28;20500;-67
2022/08/22 07:00:23;;;;;;;7.03;2.60;;;17.60;93.80;;;;;;5034514;28;20420;-68
2022/08/22 07:02:57;;;;;;;4.13;1.80;;;17.70;93.30;;;;;;5033763;28;20495;-67
2022/08/22 07:05:27;;;;;;;4.70;2.17;;;17.90;92.80;;;;;;5034364;28;20412;-66
2022/08/22 07:07:53;;;;;;;6.23;2.80;;;18.20;92.30;;;;;;5034214;28;20748;-67
2022/08/22 07:10:20;;;;;;;8.00;2.10;;;18.50;90.20;;;;;;5034288;28;20405;-67
2022/08/22 07:12:50;;;;;;;4.63;2.37;;;18.90;90.30;;;;;;5033859;28;20493;-68
2022/08/22 07:15:19;;;;;;;5.50;2.60;;;19.20;90.10;;;;;;5034192;28;20508;-68
2022/08/22 07:17:52;;;;;;;5.50;2.10;;;19.80;88.30;;;;;;5034280;28;20413;-68
2022/08/22 07:20:26;;;;;;;4.53;2.43;;;20.10;87.50;;;;;;5032942;28;20413;-68
2022/08/22 07:22:57;;;;;;;4.60;2.20;;;20.70;85.80;;;;;;5033488;28;20475;-68
2022/08/22 07:25:23;;;;;;;5.87;2.27;;;21.00;86.20;;;;;;5034212;28;20409;-67
2022/08/22 07:28:35;;;;;;;7.40;2.70;;;21.50;84.50;;;;;;5033937;28;20500;-67
2022/08/22 07:31:14;;;;;;;5.23;2.63;;;21.80;83.30;;;;;;5033533;28;20908;-68
2022/08/22 07:33:50;;;;;;;5.53;2.60;;;22.60;81.90;;;;;;5033468;28;20460;-68
2022/08/22 07:36:34;;;;;;;7.30;2.60;;;23.80;78.60;;;;;;5034178;28;20466;-68
2022/08/22 07:39:19;;;;;;;4.43;2.40;;;25.00;74.50;;;;;;5033845;28;20435;-67
2022/08/22 07:42:00;;;;;;;10.30;3.10;;;25.90;70.60;;;;;;5033304;28;20944;-68
2022/08/22 07:44:37;;;;;;;9.23;2.70;;;26.30;68.70;;;;;;5033951;28;20508;-68
2022/08/22 07:47:14;;;;;;;4.50;2.30;;;26.60;67.90;;;;;;5033908;28;20174;-68
2022/08/22 07:49:49;;;;;;;5.15;2.30;;;26.20;68.00;;;;;;5033836;28;20181;-70
2022/08/22 07:52:15;;;;;;;2.92;1.80;;;27.20;65.60;;;;;;5033021;28;20184;-69
2022/08/22 07:54:59;;;;;;;4.72;1.80;;;27.00;65.50;;;;;;5033749;28;20721;-68
2022/08/22 07:57:27;;;;;;;3.53;1.70;;;27.00;65.50;;;;;;5033783;28;20182;-68
2022/08/22 07:59:56;;;;;;;7.38;2.53;;;26.90;65.90;;;;;;5033565;28;20627;-68
2022/08/22 08:02:23;;;;;;;4.68;2.00;;;26.20;67.00;;;;;;5033140;28;20205;-69
2022/08/22 08:04:51;;;;;;;3.47;2.08;;;26.20;68.30;;;;;;5033355;28;20690;-69
2022/08/22 08:07:21;;;;;;;3.45;1.65;;;26.50;67.80;;;;;;5033549;28;20178;-69
2022/08/22 08:10:02;;;;;;;4.10;2.17;;;27.10;66.70;;;;;;5033503;28;20228;-69
2022/08/22 08:12:41;;;;;;;3.20;1.90;;;27.50;64.70;;;;;;5033060;28;20553;-68
2022/08/22 08:15:13;;;;;;;6.35;1.58;;;28.00;63.10;;;;;;5033274;28;20177;-69
2022/08/22 08:17:41;;;;;;;8.48;2.65;;;28.40;62.10;;;;;;5033439;28;20166;-69
2022/08/22 08:20:13;;;;;;;3.47;1.75;;;28.90;59.70;;;;;;5033239;28;20173;-69
2022/08/22 08:22:43;;;;;;;4.50;1.98;;;29.60;58.40;;;;;;5032562;28;20225;-69
2022/08/22 08:25:14;;;;;;;3.72;1.40;;;29.70;58.50;;;;;;5033137;28;20174;-69
2022/08/22 08:30:54;;;;;;;4.45;2.08;;;29.40;57.80;;;;;;5032695;28;20778;-69
2022/08/22 08:33:24;;;;;;;5.57;2.05;;;29.50;57.70;;;;;;5022764;28;20212;-69
2022/08/22 08:35:56;;;;;;;4.32;1.60;;;30.40;56.40;;;;;;5033114;28;20170;-70
2022/08/22 08:38:28;;;;;;;5.43;2.17;;;30.50;55.00;;;;;;5032871;28;20174;-69
2022/08/22 08:41:16;;;;;;;6.15;2.22;;;30.60;54.80;;;;;;5032805;28;20511;-69
2022/08/22 08:44:00;;;;;;;6.57;1.30;;;29.40;56.50;;;;;;5032821;28;20228;-69
2022/08/22 08:46:50;;;;;;;3.17;1.85;;;29.50;56.50;;;;;;5031521;28;20198;-69
2022/08/22 08:49:30;;;;;;;5.90;1.52;;;29.80;55.30;;;;;;5032756;28;20204;-68
2022/08/22 08:52:19;;;;;;;3.95;2.10;;;29.60;56.10;;;;;;5032509;28;20260;-69
2022/08/22 08:54:44;;;;;;;4.72;1.70;;;29.50;55.20;;;;;;5032695;28;20166;-69
2022/08/22 08:57:22;;;;;;;3.55;1.73;;;30.40;53.50;;;;;;5032965;28;20236;-69
2022/08/22 09:00:15;;;;;;;5.45;2.35;;;30.10;53.70;;;;;;5033023;28;20173;-68
2022/08/22 09:03:01;;;;;;;2.40;1.48;;;29.80;54.10;;;;;;5032051;28;20221;-69
2022/08/22 09:05:51;;;;;;;5.72;1.55;;;29.40;54.90;;;;;;5021202;28;20272;-69
2022/08/22 09:08:42;;;;;;;3.90;2.33;;;29.50;55.70;;;;;;5032684;28;20185;-69
2022/08/22 09:11:29;;;;;;;5.75;2.10;;;29.30;55.10;;;;;;5031999;28;20177;-69
2022/08/22 09:14:28;;;;;;;5.30;2.38;;;29.80;53.30;;;;;;5032656;28;20166;-69
2022/08/22 09:17:35;;;;;;;5.32;1.33;;;29.70;52.30;;;;;;5032396;28;20525;-69
2022/08/22 09:20:07;;;;;;;6.68;1.92;;;29.60;53.20;;;;;;5027122;28;20810;-69
2022/08/22 09:23:00;;;;;;;6.88;2.00;;;29.80;52.20;;;;;;5031878;28;20906;-69
2022/08/22 09:25:26;;;;;;;4.85;1.85;;;29.40;52.90;;;;;;5032226;28;20173;-69
2022/08/22 09:28:09;;;;;;;2.80;1.50;;;29.00;53.70;;;;;;5032213;28;20582;-69
2022/08/22 09:30:55;;;;;;;2.53;1.25;;;29.00;55.10;;;;;;5032099;28;20174;-68
2022/08/22 09:33:27;;;;;;;5.30;1.98;;;29.50;52.80;;;;;;5031383;28;20268;-68
2022/08/22 09:36:02;;;;;;;3.42;1.83;;;29.20;52.80;;;;;;5032088;28;20162;-69
2022/08/22 09:38:42;;;;;;;2.30;1.40;;;29.80;52.50;;;;;;5032148;28;20154;-69
2022/08/22 09:41:35;;;;;;;5.00;1.98;;;29.00;53.50;;;;;;5031419;28;20236;-69
2022/08/22 09:44:10;;;;;;;3.03;1.73;;;29.00;54.90;;;;;;5035136;28;20204;-69
2022/08/22 09:47:17;;;;;;;3.05;1.88;;;29.20;54.00;;;;;;5036326;28;20288;-69
2022/08/22 09:50:09;;;;;;;5.45;2.30;;;28.90;54.10;;;;;;5035618;28;20653;-69
2022/08/22 09:53:22;;;;;;;5.57;1.95;;;28.60;54.40;;;;;;5035760;28;20212;-69
2022/08/22 09:56:00;;;;;;;3.55;1.80;;;28.40;54.90;;;;;;5035825;28;20162;-68
2022/08/22 09:58:36;;;;;;;6.40;1.73;;;29.00;53.60;;;;;;5036163;28;20547;-69
2022/08/22 10:01:35;;;;;;;3.22;1.50;;;29.00;53.10;;;;;;5035411;28;20197;-69
2022/08/22 10:04:12;;;;;;;3.28;1.83;;;28.70;53.40;;;;;;5024923;28;20190;-68
2022/08/22 10:07:14;;;;;;;2.95;1.55;;;28.40;54.30;;;;;;5035752;28;20288;-68
2022/08/22 10:09:52;;;;;;;6.22;1.83;;;28.10;53.80;;;;;;5035599;28;20174;-68
2022/08/22 10:12:29;;;;;;;6.15;1.50;;;27.90;55.50;;;;;;5035214;28;20169;-68
2022/08/22 10:15:22;;;;;;;4.93;1.90;;;27.30;55.40;;;;;;5035711;28;20610;-68
2022/08/22 10:18:00;;;;;;;5.87;1.93;;;27.20;56.90;;;;;;5035698;28;20178;-68
2022/08/22 10:20:56;;;;;;;2.10;1.30;;;27.20;55.40;;;;;;5035647;28;20212;-68
2022/08/22 10:23:24;;;;;;;5.10;1.97;;;27.10;55.70;;;;;;5033525;28;20189;-68
2022/08/22 10:25:54;;;;;;;4.90;1.73;;;27.40;54.50;;;;;;5035507;28;20353;-69
2022/08/22 10:28:41;;;;;;;12.00;2.03;;;27.50;54.80;;;;;;5035796;28;20192;-68
2022/08/22 10:31:26;;;;;;;2.83;1.47;;;27.60;54.30;;;;;;5035170;28;20563;-69
2022/08/22 10:34:06;;;;;;;3.20;1.60;;;27.70;54.60;;;;;;5035397;28;20253;-68
2022/08/22 10:36:34;;;;;;;4.37;1.80;;;27.70;54.40;;;;;;5035604;28;20886;-69
2022/08/22 10:39:05;;;;;;;3.93;1.87;;;27.60;54.40;;;;;;5035296;28;20420;-69
2022/08/22 10:42:15;;;;;;;5.43;2.07;;;27.80;53.20;;;;;;5034650;28;20193;-68
2022/08/22 10:45:14;;;;;;;5.10;2.10;;;27.80;53.70;;;;;;5035206;28;20150;-68
2022/08/22 10:47:58;;;;;;;4.30;1.63;;;27.70;55.10;;;;;;5035158;28;20408;-69
2022/08/22 10:50:31;;;;;;;5.00;2.10;;;27.60;54.00;;;;;;5034914;28;20423;-69
2022/08/22 10:53:34;;;;;;;5.87;2.07;;;27.80;53.10;;;;;;5034602;28;20178;-69
2022/08/22 10:56:11;;;;;;;3.70;1.80;;;27.80;54.10;;;;;;5034772;28;20489;-69
2022/08/22 10:59:05;;;;;;;6.90;2.13;;;27.80;53.40;;;;;;5034908;28;20158;-69
2022/08/22 11:01:38;;;;;;;4.27;2.17;;;28.00;53.80;;;;;;5034197;28;20649;-69
2022/08/22 11:04:40;;;;;;;4.47;1.50;;;28.10;53.10;;;;;;5034946;28;20165;-69
2022/08/22 11:07:35;;;;;;;4.87;1.50;;;27.80;53.70;;;;;;5034606;28;20705;-69
2022/08/22 11:10:20;;;;;;;4.03;2.00;;;27.10;54.70;;;;;;5034799;28;20253;-69
2022/08/22 11:13:25;;;;;;;4.37;1.77;;;27.00;55.80;;;;;;5034260;28;20261;-69
2022/08/22 11:16:14;;;;;;;3.27;1.70;;;26.80;55.70;;;;;;5034550;28;20181;-69
2022/08/22 11:18:58;;;;;;;5.37;1.90;;;26.60;56.20;;;;;;5034638;28;20424;-69
2022/08/22 11:21:41;;;;;;;2.87;1.50;;;26.60;56.50;;;;;;5033912;28;21054;-69
2022/08/22 11:24:25;;;;;;;3.03;1.80;;;27.00;56.10;;;;;;5034422;28;20768;-69
2022/08/22 11:26:58;;;;;;;5.70;2.10;;;27.50;55.40;;;;;;5034127;28;20916;-68
2022/08/22 11:29:32;;;;;;;6.53;1.63;;;27.70;54.80;;;;;;5034319;28;20174;-69
2022/08/22 11:32:16;;;;;;;8.03;1.40;;;27.20;55.20;;;;;;5032973;28;20282;-69
2022/08/22 11:34:46;;;;;;;3.10;1.80;;;27.60;55.10;;;;;;5034174;28;20170;-69
2022/08/22 11:37:23;;;;;;;6.37;1.93;;;28.00;53.50;;;;;;5034170;28;20174;-69
2022/08/22 11:40:13;;;;;;;4.20;2.20;;;27.90;54.60;;;;;;5034317;28;20253;-68
2022/08/22 11:42:57;;;;;;;7.10;1.83;;;27.80;54.40;;;;;;5033511;28;20229;-68
2022/08/22 11:45:30;;;;;;;3.83;1.93;;;27.70;54.40;;;;;;5034825;28;20196;-68
2022/08/22 11:48:05;;;;;;;4.40;1.67;;;27.60;53.30;;;;;;5034504;28;20212;-68
2022/08/22 11:50:44;;;;;;;3.40;1.80;;;27.50;53.90;;;;;;5034395;28;20177;-68
2022/08/22 11:53:30;;;;;;;7.60;1.93;;;27.40;53.50;;;;;;5033957;28;20227;-68
2022/08/22 11:56:11;;;;;;;3.80;2.13;;;27.60;54.00;;;;;;5034163;28;20166;-68
2022/08/22 11:59:00;;;;;;;3.93;1.83;;;27.60;52.90;;;;;;5033889;28;20200;-69
2022/08/22 12:01:36;;;;;;;6.43;1.93;;;27.40;53.50;;;;;;5033053;28;20626;-69
2022/08/22 12:04:14;;;;;;;4.13;2.00;;;27.70;52.70;;;;;;5034028;28;20630;-69
2022/08/22 12:07:06;;;;;;;3.77;1.87;;;28.10;51.80;;;;;;5032986;28;20251;-68
2022/08/22 12:09:59;;;;;;;2.73;1.57;;;28.10;52.60;;;;;;5032568;28;20550;-68
2022/08/22 12:12:31;;;;;;;6.20;1.77;;;28.00;53.10;;;;;;5033190;28;20615;-69
2022/08/22 12:15:16;;;;;;;3.27;1.70;;;28.10;53.10;;;;;;5033464;28;20240;-69
2022/08/22 12:17:44;;;;;;;5.10;2.40;;;28.40;52.30;;;;;;5033542;28;20185;-69
2022/08/22 12:20:44;;;;;;;3.60;1.77;;;28.50;51.90;;;;;;5033516;28;20170;-69
2022/08/22 12:23:16;;;;;;;12.30;1.70;;;28.80;50.70;;;;;;5032784;28;20197;-69
2022/08/22 12:26:10;;;;;;;3.60;1.55;;;29.00;49.40;;;;;;5033195;28;20642;-69
2022/08/22 12:28:55;;;;;;;2.00;1.10;;;28.90;50.00;;;;;;5033318;28;20172;-68
2022/08/22 12:31:57;;;;;;;4.00;1.58;;;29.00;49.00;;;;;;5032432;28;20696;-68
2022/08/22 12:35:00;;;;;;;5.90;1.70;;;28.90;49.40;;;;;;5033158;28;20265;-68
2022/08/22 12:37:58;;;;;;;4.40;2.08;;;28.90;49.70;;;;;;5032898;28;20201;-69
2022/08/22 12:40:52;;;;;;;4.72;1.63;;;29.30;48.60;;;;;;5033063;28;20615;-68
2022/08/22 12:43:51;;;;;;;7.95;1.45;;;29.30;49.20;;;;;;5032404;28;20312;-68
2022/08/22 12:46:38;;;;;;;2.85;1.35;;;28.90;49.90;;;;;;5032797;28;20244;-68
2022/08/22 12:49:32;;;;;;;4.35;1.42;;;29.00;49.60;;;;;;5032693;28;20209;-69
2022/08/22 12:52:16;;;;;;;4.05;1.67;;;29.30;48.40;;;;;;5032155;28;20519;-69
2022/08/22 12:54:54;;;;;;;3.15;1.70;;;29.20;49.80;;;;;;5032741;28;20249;-68
2022/08/22 12:57:25;;;;;;;3.78;1.85;;;29.30;49.70;;;;;;5032484;28;20174;-68
2022/08/22 12:59:58;;;;;;;4.40;1.70;;;29.20;49.90;;;;;;5032537;28;20503;-69
2022/08/22 13:02:31;;;;;;;2.90;1.17;;;29.20;50.50;;;;;;5031892;28;20193;-69
2022/08/22 13:04:59;;;;;;;3.95;2.05;;;29.40;48.60;;;;;;5032653;28;20188;-69
2022/08/22 13:07:37;;;;;;;3.85;1.83;;;29.40;49.00;;;;;;5032438;28;20253;-69
2022/08/22 13:10:03;;;;;;;2.47;1.52;;;29.30;48.80;;;;;;5032466;28;20169;-68
2022/08/22 13:12:37;;;;;;;2.90;1.55;;;29.10;48.70;;;;;;5031960;28;20543;-68
2022/08/22 13:15:27;;;;;;;3.40;1.65;;;29.10;49.40;;;;;;5032331;28;20151;-68
2022/08/22 13:17:54;;;;;;;3.42;1.70;;;29.30;49.20;;;;;;5032372;28;20174;-69
2022/08/22 13:20:25;;;;;;;3.80;1.40;;;29.10;48.50;;;;;;5032405;28;20581;-68
2022/08/22 13:22:52;;;;;;;3.42;1.58;;;29.10;48.70;;;;;;5031923;28;20193;-68
2022/08/22 13:25:25;;;;;;;2.65;1.13;;;29.50;50.20;;;;;;5032402;28;20192;-68
2022/08/22 13:27:53;;;;;;;5.18;1.42;;;29.30;48.70;;;;;;5032409;28;20207;-68
2022/08/22 13:30:25;;;;;;;3.95;1.55;;;29.10;49.20;;;;;;5032139;28;20205;-68
2022/08/22 13:32:55;;;;;;;9.10;2.10;;;29.10;50.00;;;;;;5031031;28;20197;-69
2022/08/22 13:35:31;;;;;;;4.03;2.22;;;29.40;50.10;;;;;;5032466;28;20827;-69
2022/08/22 13:38:08;;;;;;;4.22;2.33;;;29.60;50.60;;;;;;5032311;28;20605;-69
2022/08/22 13:40:36;;;;;;;4.00;1.58;;;29.90;49.90;;;;;;5032208;28;20209;-69
2022/08/22 13:43:09;;;;;;;6.13;1.50;;;29.60;50.70;;;;;;5031669;28;20205;-68
2022/08/22 13:45:39;;;;;;;3.10;1.83;;;29.80;49.80;;;;;;5032273;28;20578;-68
2022/08/22 13:48:13;;;;;;;3.45;1.80;;;29.50;50.40;;;;;;5032084;28;20170;-69
2022/08/22 13:51:13;;;;;;;2.78;1.48;;;29.40;51.20;;;;;;5032280;28;20601;-69
2022/08/22 13:54:09;;;;;;;4.03;1.88;;;29.40;50.40;;;;;;5032061;28;20186;-69
2022/08/22 13:56:50;;;;;;;2.80;1.58;;;29.30;50.90;;;;;;5017869;28;20588;-69
2022/08/22 13:59:35;;;;;;;3.50;1.90;;;29.40;50.20;;;;;;5012236;28;20154;-68